CDT,Max TemperatureF,Mean TemperatureF,Min TemperatureF,Max Dew PointF,MeanDew PointF,Min DewpointF,Max Humidity, Mean Humidity, Min Humidity, Max Sea Level PressureIn, Mean Sea Level PressureIn, Min Sea Level PressureIn, Max VisibilityMiles, Mean VisibilityMiles, Min VisibilityMiles, Max Wind SpeedMPH, Mean Wind SpeedMPH, Max Gust SpeedMPH,PrecipitationIn, CloudCover, Events, WindDirDegrees
2013-8-1,78,70,61,61,56,52,93,67,40,30.01,29.97,29.90,10,10,10,15,6,22,0.00,2,,312
2013-8-2,80,71,61,65,59,53,87,66,45,29.96,29.87,29.83,10,9,2,10,4,16,0.12,5,Rain-Thunderstorm,281
2013-8-3,77,65,52,56,53,49,100,68,36,30.14,30.07,29.98,10,10,10,14,3,24,0.00,2,,332
2013-8-4,76,64,52,58,54,50,96,71,46,30.23,30.17,30.11,10,10,10,13,4,15,0.00,3,,59
2013-8-5,74,67,60,65,60,55,93,79,64,30.11,29.96,29.86,10,10,7,20,8,26,0.06,6,Rain,177
2013-8-6,84,76,67,70,66,64,93,76,58,29.88,29.83,29.78,10,9,4,14,5,26,0.00,6,,200
2013-8-7,80,71,62,71,65,59,90,73,56,29.97,29.84,29.74,10,9,7,16,6,23,0.00,3,,335
2013-8-8,80,70,59,63,59,53,97,71,45,30.05,30.01,29.98,10,10,6,10,5,14,0.00,4,,95
2013-8-9,80,69,58,63,57,50,84,65,46,30.06,29.99,29.98,10,10,10,9,4,16,0.00,3,,242
2013-8-10,76,65,53,58,55,52,100,75,49,30.16,30.13,30.08,10,10,8,10,2,14,0.00,3,,326
2013-8-11,74,63,52,65,60,52,100,84,68,30.14,30.09,30.03,10,9,2,10,2,14,0.12,7,Rain,171
2013-8-12,81,71,61,66,63,56,93,74,54,30.03,29.97,29.91,10,7,2,15,4,24,T,6,,356
2013-8-13,71,61,51,58,50,46,84,64,44,30.17,30.10,30.00,10,10,10,15,7,22,0.00,4,,17
2013-8-14,74,60,46,54,50,45,100,71,41,30.23,30.18,30.13,10,10,9,7,1,13,0.00,2,,282
2013-8-15,77,67,57,56,53,49,84,61,38,30.16,30.12,30.09,10,10,10,7,1,12,0.00,6,,240
2013-8-16,82,67,52,57,54,50,100,68,36,30.19,30.17,30.13,10,10,7,9,2,,0.00,2,,333
2013-8-17,81,66,51,57,54,50,100,68,35,30.25,30.21,30.17,10,9,5,15,3,26,0.00,1,,147
2013-8-18,81,67,52,58,54,51,100,68,36,30.22,30.16,30.09,10,9,5,12,3,18,0.00,0,Fog,196
2013-8-19,82,69,55,62,59,54,93,69,45,30.10,30.06,30.02,10,10,7,10,3,32,0.00,1,,225
2013-8-20,87,76,64,64,63,60,81,63,44,30.07,30.03,29.99,10,10,7,16,8,21,0.00,1,,199
2013-8-21,89,81,72,70,66,64,79,63,47,30.01,29.98,29.91,10,10,8,20,8,25,T,4,Rain,206
2013-8-22,78,71,63,70,67,61,100,90,79,30.14,30.06,29.98,10,6,1,16,3,24,1.23,5,Rain-Thunderstorm,310
2013-8-23,82,69,55,59,57,54,100,73,45,30.19,30.15,30.12,10,10,6,14,5,16,0.00,0,,146
2013-8-24,83,69,55,66,61,53,93,74,55,30.25,30.20,30.16,10,10,10,15,8,18,0.00,0,,175
2013-8-25,88,80,71,70,66,62,79,65,50,30.19,30.13,30.07,10,10,10,17,8,25,0.00,0,,208
2013-8-26,90,82,74,73,69,65,74,67,59,30.12,30.03,29.95,10,10,10,14,7,21,0.00,0,,214
2013-8-27,93,85,77,74,71,69,79,64,49,29.95,29.87,29.79,10,10,10,14,5,23,0.00,1,,221
2013-8-28,84,76,68,73,70,67,100,83,65,30.05,29.96,29.83,10,8,1,12,6,15,0.00,6,,45
2013-8-29,86,74,61,69,65,61,100,74,48,30.09,30.04,29.96,10,6,0,22,6,66,0.00,0,Fog,179
2013-8-30,91,81,70,76,71,66,93,75,56,29.95,29.85,29.76,10,9,7,16,8,21,0.00,3,,176
2013-8-31,81,72,63,66,64,61,93,78,62,29.88,29.84,29.79,10,10,10,12,4,18,0.00,4,,76